Time;durP1;ratioP1;P1;durP2;ratioP2;P2;SDS_P1;SDS_P2;PMS_P1;PMS_P2;Temp;Humidity;BMP_temperature;BMP_pressure;BME280_temperature;BME280_humidity;BME280_pressure;Samples;Min_cycle;Max_cycle;Signal;HPM_P1;HPM_P2
2022/11/18 00:00:54;;;;;;;26.40;13.80;;;5.10;99.90;;;3.28;100.00;99033.59;4824097;29;20509;-80
2022/11/18 00:03:20;;;;;;;31.63;15.05;;;5.00;99.90;;;3.28;100.00;99038.97;4818689;29;20035;-80
2022/11/18 00:05:56;;;;;;;34.45;15.05;;;5.00;99.90;;;3.26;100.00;99043.75;4820005;29;20037;-81
2022/11/18 00:08:24;;;;;;;32.88;15.80;;;5.00;99.90;;;3.24;100.00;99044.97;4819635;29;20046;-79
2022/11/18 00:10:50;;;;;;;34.15;15.63;;;5.00;99.90;;;3.22;100.00;99042.50;4820117;29;20068;-79
2022/11/18 00:16:08;;;;;;;29.98;13.68;;;5.00;99.90;;;3.23;100.00;99054.94;4819710;29;20050;-79
2022/11/18 00:18:34;;;;;;;30.42;14.30;;;4.90;99.90;;;3.21;100.00;99057.03;4819446;29;20034;-79
2022/11/18 00:21:10;;;;;;;29.77;13.38;;;5.00;99.90;;;3.20;100.00;99054.53;4819534;29;20099;-80
2022/11/18 00:23:37;;;;;;;29.35;13.55;;;5.00;99.90;;;3.16;100.00;99048.69;4833348;29;20058;-83
2022/11/18 00:26:12;;;;;;;29.00;14.68;;;4.90;99.90;;;3.17;100.00;99044.97;4819681;29;20102;-80
2022/11/18 00:28:39;;;;;;;34.78;15.43;;;4.90;99.90;;;3.17;100.00;99048.50;4819619;29;20044;-82
2022/11/18 00:31:09;;;;;;;29.98;14.18;;;4.90;99.90;;;3.14;100.00;99050.78;4819230;29;20038;-81
2022/11/18 00:33:35;;;;;;;31.35;14.77;;;4.90;99.90;;;3.15;100.00;99055.13;4819644;29;20031;-80
2022/11/18 00:36:07;;;;;;;32.83;14.38;;;4.90;99.90;;;3.13;100.00;99057.22;4819430;29;20067;-82
2022/11/18 00:38:33;;;;;;;30.27;14.85;;;4.90;99.90;;;3.13;100.00;99059.91;4820142;29;20066;-82
2022/11/18 00:41:07;;;;;;;29.15;14.63;;;4.90;99.90;;;3.15;100.00;99057.81;4819468;29;20067;-81
2022/11/18 00:43:34;;;;;;;33.75;15.52;;;4.90;99.90;;;3.16;100.00;99059.47;4819516;29;20035;-84
2022/11/18 00:46:00;;;;;;;28.83;14.40;;;4.90;99.90;;;3.12;100.00;99055.53;4820020;29;20039;-83
2022/11/18 00:48:27;;;;;;;29.48;13.80;;;4.90;99.90;;;3.13;100.00;99055.34;4819717;29;20042;-80
2022/11/18 00:50:57;;;;;;;30.42;14.57;;;4.90;99.90;;;3.14;100.00;99064.25;4819190;29;20030;-81
2022/11/18 00:53:25;;;;;;;36.30;14.82;;;4.90;99.90;;;3.11;100.00;99059.28;4833520;29;20038;-82
2022/11/18 00:55:52;;;;;;;28.40;14.20;;;4.90;99.90;;;3.07;100.00;99071.50;4821046;29;20091;-81
2022/11/18 00:58:18;;;;;;;28.30;13.88;;;4.80;99.90;;;3.07;100.00;99071.50;4819562;29;20052;-80
2022/11/18 01:00:49;;;;;;;29.33;14.55;;;4.80;99.90;;;3.06;100.00;99070.69;4819042;29;20471;-82
2022/11/18 01:03:15;;;;;;;28.83;14.02;;;4.80;99.90;;;3.09;100.00;99069.44;4819018;29;20407;-80
2022/11/18 01:05:41;;;;;;;27.33;14.07;;;4.80;99.90;;;3.07;100.00;99068.81;4823052;29;20035;-81
2022/11/18 01:08:10;;;;;;;26.17;13.55;;;4.80;99.90;;;3.07;100.00;99071.50;4819108;29;20094;-81
2022/11/18 01:10:37;;;;;;;26.63;13.65;;;4.80;99.90;;;3.07;100.00;99082.28;4819605;29;20058;-80
2022/11/18 01:13:20;;;;;;;29.90;14.47;;;4.80;99.90;;;3.05;100.00;99078.97;4819842;29;20117;-81
2022/11/18 01:15:55;;;;;;;27.58;13.15;;;4.80;99.90;;;3.00;100.00;99077.72;4822285;29;20042;-81
2022/11/18 01:18:29;;;;;;;31.60;14.80;;;4.80;99.90;;;3.05;100.00;99084.38;4818589;29;20045;-81
2022/11/18 01:21:00;;;;;;;29.75;14.50;;;4.80;99.90;;;2.99;100.00;99081.47;4819404;29;20051;-80
2022/11/18 01:23:26;;;;;;;29.15;14.70;;;4.80;99.90;;;3.02;100.00;99088.28;4819494;29;20030;-82
2022/11/18 01:25:52;;;;;;;34.20;15.60;;;4.80;99.90;;;3.00;100.00;99093.06;4821814;29;20162;-80
2022/11/18 01:28:18;;;;;;;31.85;14.55;;;4.70;99.90;;;2.98;100.00;99093.28;4818708;29;20380;-79
2022/11/18 01:30:45;;;;;;;32.00;15.65;;;4.70;99.90;;;2.95;100.00;99095.53;4823102;29;20504;-79
2022/11/18 01:33:12;;;;;;;30.20;14.40;;;4.70;99.90;;;2.96;100.00;99092.66;4818405;29;20090;-79
2022/11/18 01:35:41;;;;;;;30.40;13.33;;;4.70;99.90;;;2.97;100.00;99097.00;4818950;29;20054;-79
2022/11/18 01:38:09;;;;;;;31.20;14.00;;;4.70;99.90;;;3.01;100.00;99095.56;4818482;29;20079;-81
2022/11/18 01:40:36;;;;;;;29.92;13.95;;;4.70;99.90;;;3.02;100.00;99091.81;4822589;29;20030;-81
2022/11/18 01:43:10;;;;;;;25.50;13.93;;;4.70;99.90;;;3.06;100.00;99091.41;4821143;29;20094;-79
2022/11/18 01:45:42;;;;;;;23.70;12.52;;;4.70;99.90;;;3.02;100.00;99091.81;4822002;29;20035;-80
2022/11/18 01:48:23;;;;;;;24.20;12.05;;;4.80;99.90;;;3.01;100.00;99090.16;4821804;29;20037;-80
2022/11/18 01:51:09;;;;;;;26.75;12.40;;;4.70;99.90;;;2.99;100.00;99091.41;4821862;29;20046;-79
2022/11/18 01:53:41;;;;;;;25.83;12.15;;;4.70;99.90;;;2.98;100.00;99092.44;4822056;29;20109;-80
2022/11/18 01:56:25;;;;;;;25.35;12.05;;;4.70;99.90;;;2.94;100.00;99094.72;4822013;29;20454;-80
2022/11/18 01:59:06;;;;;;;27.75;12.57;;;4.70;99.90;;;2.87;100.00;99086.63;4821648;29;20038;-80
2022/11/18 02:01:32;;;;;;;25.75;12.65;;;4.70;99.90;;;2.98;100.00;99103.22;4828308;29;20034;-80
2022/11/18 02:03:58;;;;;;;34.55;13.88;;;4.70;99.90;;;2.94;100.00;99104.66;4826146;29;20399;-80
2022/11/18 02:06:24;;;;;;;29.05;13.60;;;4.70;99.90;;;2.93;100.00;99111.09;4821434;29;20121;-80
2022/11/18 02:08:50;;;;;;;30.48;14.10;;;4.70;99.90;;;2.89;100.00;99113.34;4821691;29;20034;-80
2022/11/18 02:14:06;;;;;;;27.50;13.60;;;4.60;99.90;;;2.88;100.00;99117.06;4821358;29;20413;-80
2022/11/18 02:17:03;;;;;;;29.25;13.85;;;4.70;99.90;;;2.91;100.00;99122.06;4824699;29;20034;-81
2022/11/18 02:20:06;;;;;;;32.65;14.32;;;4.70;99.90;;;2.92;100.00;99122.91;4821279;29;20150;-80
2022/11/18 02:22:51;;;;;;;28.25;13.82;;;4.60;99.90;;;2.94;100.00;99118.13;4821608;29;20041;-80
2022/11/18 02:25:56;;;;;;;30.88;13.95;;;4.70;99.90;;;2.94;100.00;99126.22;4821489;29;20334;-79
2022/11/18 02:29:03;;;;;;;35.65;16.10;;;4.70;99.90;;;2.91;100.00;99123.94;4828356;29;20046;-80
2022/11/18 02:31:42;;;;;;;34.58;15.73;;;4.70;99.90;;;2.91;100.00;99127.44;4821471;29;20030;-80
2022/11/18 02:34:23;;;;;;;35.97;16.35;;;4.60;99.90;;;2.88;100.00;99123.31;4821272;29;20478;-80
2022/11/18 02:36:58;;;;;;;35.38;16.33;;;4.60;99.90;;;2.86;100.00;99124.53;4821244;29;20451;-82
2022/11/18 02:40:06;;;;;;;35.78;16.00;;;4.60;99.90;;;2.86;100.00;99122.69;4821341;29;20094;-83
2022/11/18 02:42:36;;;;;;;33.80;15.15;;;4.60;99.90;;;2.85;100.00;99123.72;4826086;29;20047;-83
2022/11/18 02:45:14;;;;;;;34.03;16.15;;;4.60;99.90;;;2.85;100.00;99122.88;4826485;29;20531;-84
2022/11/18 02:47:44;;;;;;;32.75;15.52;;;4.60;99.90;;;2.83;100.00;99125.78;4821465;29;20122;-83
2022/11/18 02:50:17;;;;;;;30.40;14.75;;;4.60;99.90;;;2.86;100.00;99125.38;4821077;29;20052;-83
2022/11/18 02:52:46;;;;;;;33.00;15.02;;;4.60;99.90;;;2.85;100.00;99122.88;4821255;29;20038;-82
2022/11/18 02:55:15;;;;;;;34.17;15.20;;;4.60;99.90;;;2.81;100.00;99119.78;4820883;29;20042;-82
2022/11/18 02:57:43;;;;;;;32.80;15.60;;;4.60;99.90;;;2.83;100.00;99122.25;4821035;29;20139;-82
2022/11/18 03:00:10;;;;;;;33.72;15.73;;;4.60;99.90;;;2.80;100.00;99125.34;4821082;29;20061;-80
2022/11/18 03:02:43;;;;;;;32.60;15.68;;;4.50;99.90;;;2.81;100.00;99127.00;4820664;29;20121;-82
2022/11/18 03:05:22;;;;;;;34.53;15.45;;;4.50;99.90;;;2.80;100.00;99131.59;4822115;29;20038;-83
2022/11/18 03:07:55;;;;;;;33.08;15.90;;;4.50;99.90;;;2.80;100.00;99144.22;4822568;29;20042;-84
2022/11/18 03:10:31;;;;;;;32.85;15.40;;;4.50;99.90;;;2.78;100.00;99149.78;4822720;29;20096;-82
2022/11/18 03:13:44;;;;;;;32.67;16.40;;;4.50;99.90;;;2.73;100.00;99149.56;4820657;29;20034;-82
2022/11/18 03:16:21;;;;;;;37.63;16.02;;;4.50;99.90;;;2.72;100.00;99154.13;4821330;29;20042;-79
2022/11/18 03:19:07;;;;;;;35.17;16.77;;;4.50;99.90;;;2.74;100.00;99164.69;4821508;29;20089;-81
2022/11/18 03:21:44;;;;;;;39.00;18.25;;;4.50;99.90;;;2.71;100.00;99160.56;4829875;29;20041;-82
2022/11/18 03:24:26;;;;;;;35.38;16.35;;;4.50;99.90;;;2.70;100.00;99153.50;4828303;29;20490;-82
2022/11/18 03:27:04;;;;;;;41.90;17.80;;;4.40;99.90;;;2.67;100.00;99163.84;4821692;29;20141;-83
2022/11/18 03:29:37;;;;;;;36.47;17.40;;;4.40;99.90;;;2.65;100.00;99158.69;4826369;29;20041;-81
2022/11/18 03:32:11;;;;;;;35.15;17.08;;;4.40;99.90;;;2.61;100.00;99162.78;4820576;29;20045;-81
2022/11/18 03:34:45;;;;;;;37.72;16.20;;;4.40;99.90;;;2.58;100.00;99172.09;4819727;29;20062;-82
2022/11/18 03:37:15;;;;;;;35.10;16.05;;;4.30;99.90;;;2.59;100.00;99179.16;4820573;29;20133;-82
2022/11/18 03:40:00;;;;;;;36.97;16.88;;;4.30;99.90;;;2.59;100.00;99189.06;4821879;29;20051;-82
2022/11/18 03:42:43;;;;;;;37.40;17.33;;;4.30;99.90;;;2.50;100.00;99195.69;4819942;29;20030;-82
2022/11/18 03:45:21;;;;;;;32.17;16.40;;;4.30;99.90;;;2.48;100.00;99203.94;4822491;29;20118;-83
2022/11/18 03:48:13;;;;;;;32.45;15.70;;;4.20;99.90;;;2.46;100.00;99205.19;4821472;29;20070;-82
2022/11/18 03:50:49;;;;;;;39.35;16.30;;;4.20;99.90;;;2.43;100.00;99209.09;4820593;29;20139;-82
2022/11/18 03:53:19;;;;;;;33.72;16.08;;;4.20;99.90;;;2.42;100.00;99213.66;4820183;29;20030;-83
2022/11/18 03:55:53;;;;;;;41.60;17.35;;;4.20;99.90;;;2.40;100.00;99217.56;4826421;29;20042;-83
2022/11/18 03:58:23;;;;;;;39.28;17.05;;;4.10;99.90;;;2.36;100.00;99217.13;4820555;29;20038;-83
2022/11/18 04:01:00;;;;;;;40.70;17.27;;;4.10;99.90;;;2.30;100.00;99223.31;4819714;29;20030;-81
2022/11/18 04:03:26;;;;;;;35.35;15.93;;;4.10;99.90;;;2.29;100.00;99229.72;4819628;29;20069;-80
2022/11/18 04:06:02;;;;;;;34.90;15.77;;;4.00;99.90;;;2.30;100.00;99228.69;4819583;29;20493;-80
2022/11/18 04:08:36;;;;;;;43.22;18.42;;;4.00;99.90;;;2.23;100.00;99233.22;4820699;29;20045;-80
2022/11/18 04:14:11;;;;;;;42.83;17.65;;;4.00;99.90;;;2.26;100.00;99238.19;4819305;29;20047;-83
2022/11/18 04:16:44;;;;;;;41.17;17.48;;;4.00;99.90;;;2.26;100.00;99244.41;4819546;29;20282;-82
2022/11/18 04:19:10;;;;;;;40.75;17.50;;;4.00;99.90;;;2.26;100.00;99239.03;4819262;29;20132;-82
2022/11/18 04:21:36;;;;;;;46.83;18.48;;;4.00;99.90;;;2.20;100.00;99239.81;4819167;29;20036;-81
2022/11/18 04:24:02;;;;;;;46.63;18.40;;;4.00;99.90;;;2.22;100.00;99239.63;4818784;29;20486;-82
2022/11/18 04:26:30;;;;;;;48.65;19.73;;;4.00;99.90;;;2.19;100.00;99242.72;4818983;29;20158;-81
2022/11/18 04:28:55;;;;;;;44.28;18.55;;;4.00;99.90;;;2.13;100.00;99237.09;4818957;29;20034;-80
2022/11/18 04:31:21;;;;;;;47.90;19.13;;;3.90;99.90;;;2.14;100.00;99230.69;4819035;29;20046;-79
2022/11/18 04:33:47;;;;;;;49.67;20.08;;;3.90;99.90;;;2.08;100.00;99236.81;4818785;29;20082;-80
2022/11/18 04:36:13;;;;;;;55.80;20.10;;;3.90;99.90;;;2.05;100.00;99231.03;4818737;29;20102;-80
2022/11/18 04:38:38;;;;;;;54.13;20.77;;;3.90;99.90;;;2.05;100.00;99236.41;4818789;29;20402;-80
2022/11/18 04:41:04;;;;;;;48.70;19.20;;;3.90;99.90;;;2.07;100.00;99245.09;4818594;29;20498;-81
2022/11/18 04:43:30;;;;;;;53.90;20.27;;;3.80;99.90;;;2.05;100.00;99237.22;4818919;29;20040;-80
2022/11/18 04:45:55;;;;;;;48.60;20.42;;;3.80;99.90;;;2.09;100.00;99241.16;4819011;29;20045;-79
2022/11/18 04:48:21;;;;;;;56.78;20.30;;;3.80;99.90;;;2.05;100.00;99241.78;4818759;29;20258;-81
2022/11/18 04:50:47;;;;;;;46.42;18.83;;;3.90;99.90;;;2.06;100.00;99252.31;4818921;29;20034;-81
2022/11/18 04:53:12;;;;;;;55.05;20.00;;;3.80;99.90;;;2.01;100.00;99255.63;4818475;29;20117;-80
2022/11/18 04:55:38;;;;;;;59.67;20.35;;;3.80;99.90;;;1.98;100.00;99258.69;4818418;29;20050;-80
2022/11/18 04:58:04;;;;;;;56.03;21.50;;;3.80;99.90;;;1.99;100.00;99259.53;4818644;29;20034;-80
2022/11/18 05:00:30;;;;;;;55.80;20.70;;;3.80;99.90;;;1.94;100.00;99249.34;4818176;29;20046;-80
2022/11/18 05:02:55;;;;;;;53.28;19.48;;;3.70;99.90;;;1.82;100.00;99245.53;4818733;29;20398;-81
2022/11/18 05:05:21;;;;;;;55.28;20.48;;;3.70;99.90;;;1.92;100.00;99258.66;4818614;29;20038;-79
2022/11/18 05:07:47;;;;;;;54.45;19.83;;;3.70;99.90;;;1.86;100.00;99261.09;4818389;29;20058;-80
2022/11/18 05:10:12;;;;;;;51.03;20.17;;;3.70;99.90;;;1.94;100.00;99264.66;4818700;29;20434;-79
2022/11/18 05:12:47;;;;;;;56.42;20.90;;;3.70;99.90;;;1.95;100.00;99277.09;4819278;29;20490;-81
2022/11/18 05:15:17;;;;;;;52.17;20.27;;;3.70;99.90;;;1.92;100.00;99274.78;4820018;29;20037;-81
2022/11/18 05:17:43;;;;;;;51.35;20.92;;;3.70;99.90;;;1.90;100.00;99283.03;4824538;29;20042;-79
2022/11/18 05:20:10;;;;;;;50.70;20.05;;;3.70;99.90;;;1.88;100.00;99284.28;4822602;29;20081;-79
2022/11/18 05:22:36;;;;;;;49.23;19.40;;;3.70;99.90;;;1.85;100.00;99286.28;4822674;29;20048;-80
2022/11/18 05:25:03;;;;;;;52.33;19.77;;;3.60;99.90;;;1.83;100.00;99282.16;4822428;29;20034;-80
2022/11/18 05:27:29;;;;;;;48.78;18.70;;;3.60;99.90;;;1.81;100.00;99290.41;4823340;29;20404;-79
2022/11/18 05:29:55;;;;;;;48.42;18.48;;;3.60;99.90;;;1.79;100.00;99297.81;4823176;29;20056;-80
2022/11/18 05:32:20;;;;;;;48.53;19.13;;;3.60;99.90;;;1.81;100.00;99295.78;4823398;29;20339;-81
2022/11/18 05:34:46;;;;;;;52.10;19.67;;;3.60;99.90;;;1.82;100.00;99292.06;4824192;29;20420;-80
2022/11/18 05:37:12;;;;;;;47.25;18.15;;;3.60;99.90;;;1.80;100.00;99298.69;4822742;29;20042;-81
2022/11/18 05:39:38;;;;;;;44.25;18.95;;;3.60;99.90;;;1.77;100.00;99293.69;4821085;29;20030;-79
2022/11/18 05:44:50;;;;;;;47.22;18.40;;;3.60;99.90;;;1.78;100.00;99306.09;4821500;29;20053;-81
2022/11/18 05:47:17;;;;;;;44.08;18.33;;;3.60;99.90;;;1.73;100.00;99298.59;4821650;29;20098;-80
2022/11/18 05:49:42;;;;;;;45.53;19.27;;;3.50;99.90;;;1.71;100.00;99306.84;4822231;29;20034;-80
2022/11/18 05:52:08;;;;;;;47.28;19.98;;;3.50;99.90;;;1.71;100.00;99308.72;4821408;29;20038;-80
2022/11/18 05:54:37;;;;;;;46.10;19.50;;;3.50;99.90;;;1.67;100.00;99313.63;4827531;29;20042;-80
2022/11/18 05:57:02;;;;;;;45.63;18.38;;;3.50;99.90;;;1.68;100.00;99322.56;4822413;29;20209;-80
2022/11/18 05:59:28;;;;;;;47.20;18.45;;;3.40;99.90;;;1.66;100.00;99320.03;4825898;29;20034;-80
2022/11/18 06:02:04;;;;;;;46.35;18.83;;;3.40;99.90;;;1.68;100.00;99322.56;4821922;29;20166;-81
2022/11/18 06:04:47;;;;;;;50.03;19.67;;;3.40;99.90;;;1.70;100.00;99323.19;4821797;29;20034;-77
2022/11/18 06:07:38;;;;;;;50.45;19.98;;;3.50;99.90;;;1.67;100.00;99329.78;4820771;29;20038;-77
2022/11/18 06:10:05;;;;;;;52.15;19.33;;;3.40;99.90;;;1.66;100.00;99325.41;4820870;29;20397;-78
2022/11/18 06:12:37;;;;;;;48.08;19.92;;;3.40;99.90;;;1.66;100.00;99343.44;4822472;29;20041;-77
2022/11/18 06:15:18;;;;;;;45.15;19.10;;;3.40;99.90;;;1.68;100.00;99341.38;4840823;29;20034;-76
2022/11/18 06:18:03;;;;;;;50.10;19.00;;;3.40;99.90;;;1.65;100.00;99349.81;4820279;29;20394;-78
2022/11/18 06:20:32;;;;;;;52.45;19.65;;;3.40;99.90;;;1.64;100.00;99353.53;4821060;29;20030;-81
2022/11/18 06:22:59;;;;;;;53.55;21.83;;;3.40;99.90;;;1.63;100.00;99349.19;4822457;29;20137;-80
2022/11/18 06:25:27;;;;;;;49.37;20.47;;;3.40;99.90;;;1.61;100.00;99356.63;4820949;29;20476;-82
2022/11/18 06:27:56;;;;;;;55.40;21.38;;;3.40;99.90;;;1.57;100.00;99356.97;4822553;29;20349;-86
2022/11/18 06:30:22;;;;;;;46.38;20.05;;;3.40;99.90;;;1.59;100.00;99356.78;4837386;29;20506;-79
2022/11/18 06:32:48;;;;;;;55.83;20.40;;;3.40;99.90;;;1.52;100.00;99364.78;4820485;29;20053;-77
2022/11/18 06:35:14;;;;;;;52.10;20.73;;;3.30;99.90;;;1.51;100.00;99364.97;4820704;29;20062;-79
2022/11/18 06:37:39;;;;;;;50.30;20.75;;;3.30;99.90;;;1.47;100.00;99369.06;4820650;29;20046;-78
2022/11/18 06:40:06;;;;;;;55.35;20.77;;;3.30;99.90;;;1.44;100.00;99360.34;4820380;29;20125;-77
2022/11/18 06:45:16;;;;;;;54.03;21.52;;;3.20;99.90;;;1.36;100.00;99373.06;4820021;29;20046;-78
2022/11/18 06:47:42;;;;;;;54.08;19.38;;;3.20;99.90;;;1.35;100.00;99382.97;4820573;29;20391;-76
2022/11/18 06:50:08;;;;;;;53.53;21.02;;;3.20;99.90;;;1.31;100.00;99383.53;4819887;29;20061;-77
2022/11/18 06:52:33;;;;;;;56.10;21.63;;;3.10;99.90;;;1.29;100.00;99383.72;4820043;29;20298;-77
2022/11/18 06:54:59;;;;;;;53.75;21.55;;;3.10;99.90;;;1.28;100.00;99387.44;4820522;29;20516;-77
2022/11/18 06:57:25;;;;;;;58.10;21.15;;;3.10;99.90;;;1.26;100.00;99393.00;4820100;29;20034;-78
2022/11/18 06:59:51;;;;;;;59.38;21.92;;;3.10;99.90;;;1.27;100.00;99394.66;4819762;29;20031;-78
2022/11/18 07:02:17;;;;;;;54.13;20.88;;;3.10;99.90;;;1.25;100.00;99403.94;4820161;29;20068;-79
2022/11/18 07:04:44;;;;;;;54.15;20.40;;;3.10;99.90;;;1.24;100.00;99400.41;4819837;29;20517;-79
2022/11/18 07:07:10;;;;;;;57.45;21.52;;;3.10;99.90;;;1.29;100.00;99407.91;4820091;29;20054;-79
2022/11/18 07:09:36;;;;;;;59.75;21.77;;;3.10;99.90;;;1.26;100.00;99410.97;4820172;29;20463;-79
2022/11/18 07:12:03;;;;;;;57.95;20.88;;;3.10;99.90;;;1.26;100.00;99419.84;4819722;29;20042;-76
2022/11/18 07:14:30;;;;;;;61.55;22.23;;;3.10;99.90;;;1.24;100.00;99416.53;4820890;29;20035;-76
2022/11/18 07:16:55;;;;;;;60.88;21.90;;;3.10;99.90;;;1.29;100.00;99415.97;4826748;29;20034;-77
2022/11/18 07:19:22;;;;;;;58.83;22.20;;;3.10;99.90;;;1.29;100.00;99427.53;4819822;29;20030;-77
2022/11/18 07:21:47;;;;;;;62.70;21.33;;;3.10;99.90;;;1.35;100.00;99430.53;4825240;29;20030;-78
2022/11/18 07:24:14;;;;;;;65.30;23.05;;;3.10;99.90;;;1.33;100.00;99433.41;4819670;29;20462;-77
2022/11/18 07:26:41;;;;;;;65.78;22.52;;;3.10;99.90;;;1.32;100.00;99436.25;4820100;29;20096;-77
2022/11/18 07:29:08;;;;;;;60.88;22.02;;;3.10;99.90;;;1.34;100.00;99437.75;4819559;29;20037;-78
2022/11/18 07:31:39;;;;;;;55.05;22.35;;;3.10;99.90;;;1.31;100.00;99431.91;4819037;29;20072;-77
2022/11/18 07:34:06;;;;;;;60.38;22.45;;;3.10;99.90;;;1.34;100.00;99445.81;4819129;29;20128;-77
2022/11/18 07:36:32;;;;;;;60.47;22.67;;;3.10;99.90;;;1.29;100.00;99443.66;4819155;29;20064;-77
2022/11/18 07:39:00;;;;;;;61.33;21.73;;;3.10;99.90;;;1.34;100.00;99451.19;4819124;29;20844;-77
2022/11/18 07:41:28;;;;;;;56.53;21.52;;;3.10;99.90;;;1.34;100.00;99451.19;4818635;29;20095;-77
2022/11/18 07:43:57;;;;;;;60.42;22.25;;;3.10;99.90;;;1.32;100.00;99463.13;4819282;29;20034;-78
2022/11/18 07:46:24;;;;;;;55.55;20.70;;;3.10;99.90;;;1.31;100.00;99464.16;4819197;29;20049;-77
2022/11/18 07:48:53;;;;;;;55.47;20.65;;;3.10;99.90;;;1.28;100.00;99466.19;4819114;29;20162;-77
2022/11/18 07:51:27;;;;;;;53.22;20.77;;;3.10;99.90;;;1.27;100.00;99471.75;4819062;29;20056;-77
2022/11/18 07:53:53;;;;;;;53.10;20.65;;;3.10;99.90;;;1.23;100.00;99470.47;4819503;29;20501;-77
2022/11/18 07:56:20;;;;;;;48.97;21.13;;;3.00;99.90;;;1.17;100.00;99474.72;4818517;29;20209;-77
2022/11/18 07:58:46;;;;;;;52.60;22.02;;;3.00;99.90;;;1.23;100.00;99489.28;4818994;29;20482;-77
2022/11/18 08:01:15;;;;;;;51.20;20.67;;;3.00;99.90;;;1.22;100.00;99484.94;4832718;29;20046;-78
2022/11/18 08:03:41;;;;;;;50.17;21.05;;;3.00;99.90;;;1.21;100.00;99494.81;4821195;29;20113;-78
2022/11/18 08:06:10;;;;;;;47.47;20.33;;;3.00;99.90;;;1.22;100.00;99496.50;4817723;29;20038;-79
2022/11/18 08:08:36;;;;;;;49.63;20.08;;;3.00;99.90;;;1.19;100.00;99502.25;4818994;29;20038;-77
2022/11/18 08:11:07;;;;;;;50.25;21.42;;;3.00;99.90;;;1.17;100.00;99498.91;4819031;29;20458;-77
2022/11/18 08:13:34;;;;;;;46.25;19.10;;;3.00;99.90;;;1.18;100.00;99507.78;4819222;29;20030;-77
2022/11/18 08:16:01;;;;;;;48.70;18.38;;;3.00;99.90;;;1.18;100.00;99516.69;4819499;29;20045;-77
2022/11/18 08:18:29;;;;;;;41.25;18.20;;;3.00;99.90;;;1.18;100.00;99516.69;4823923;29;20030;-77
2022/11/18 08:20:55;;;;;;;44.95;18.90;;;3.00;99.90;;;1.19;100.00;99530.94;4822575;29;20070;-78
2022/11/18 08:23:21;;;;;;;44.05;18.83;;;3.00;99.90;;;1.19;100.00;99531.78;4818547;29;20431;-78
2022/11/18 08:25:47;;;;;;;42.17;19.13;;;3.00;99.90;;;1.17;100.00;99530.28;4834232;29;20176;-78
2022/11/18 08:28:13;;;;;;;42.85;18.88;;;2.90;99.90;;;1.13;100.00;99535.22;4820331;29;20479;-78
2022/11/18 08:30:40;;;;;;;40.95;16.65;;;2.90;99.90;;;1.11;100.00;99538.06;4819148;29;20045;-78
2022/11/18 08:33:06;;;;;;;37.45;16.40;;;2.90;99.90;;;1.08;100.00;99543.00;4820549;29;20462;-79
2022/11/18 08:35:32;;;;;;;37.85;15.95;;;2.90;99.90;;;1.06;100.00;99543.16;4818689;29;20061;-79
2022/11/18 08:37:59;;;;;;;37.70;16.50;;;2.90;99.90;;;0.99;100.00;99545.72;4819218;29;20103;-79
2022/11/18 08:40:26;;;;;;;46.03;17.42;;;2.80;99.90;;;0.95;100.00;99547.13;4819548;29;21446;-78
2022/11/18 08:42:51;;;;;;;43.22;19.08;;;2.80;99.90;;;0.94;100.00;99555.38;4818943;29;20054;-79
2022/11/18 08:45:17;;;;;;;39.13;17.70;;;2.80;99.90;;;0.99;100.00;99566.41;4828123;29;20057;-78
2022/11/18 08:47:43;;;;;;;49.10;19.38;;;2.80;99.90;;;1.00;100.00;99560.84;4822699;29;20029;-80
2022/11/18 08:50:11;;;;;;;46.45;20.95;;;2.80;99.90;;;1.08;100.00;99569.84;4820116;29;20285;-80
2022/11/18 08:52:37;;;;;;;53.95;21.83;;;2.90;99.90;;;1.09;100.00;99577.72;4818348;29;20046;-77
2022/11/18 08:55:03;;;;;;;48.30;21.15;;;2.90;99.90;;;1.11;100.00;99578.38;4818491;29;20425;-79
2022/11/18 08:57:30;;;;;;;49.40;20.90;;;2.90;99.90;;;1.05;100.00;99578.25;4820069;29;20111;-79
2022/11/18 08:59:55;;;;;;;41.45;18.85;;;2.90;99.90;;;0.99;100.00;99571.78;4819157;29;20401;-78
2022/11/18 09:02:23;;;;;;;48.65;19.33;;;2.80;99.90;;;0.93;100.00;99577.84;4818684;29;20035;-80
2022/11/18 09:04:50;;;;;;;49.38;22.02;;;2.80;99.90;;;0.98;100.00;99580.84;4818626;29;20105;-82
2022/11/18 09:07:20;;;;;;;58.88;24.30;;;2.80;99.90;;;1.00;100.00;99587.69;4832184;29;20240;-77
2022/11/18 09:09:46;;;;;;;50.15;22.33;;;2.80;99.90;;;1.03;100.00;99588.34;4820497;29;20030;-77
2022/11/18 09:12:13;;;;;;;57.40;24.45;;;2.80;99.90;;;1.06;100.00;99593.34;4832408;29;20030;-78
2022/11/18 09:14:44;;;;;;;49.28;23.98;;;2.80;99.90;;;1.03;100.00;99602.63;4818717;29;20038;-77
2022/11/18 09:17:10;;;;;;;52.50;23.35;;;2.80;99.90;;;1.06;100.00;99606.78;4821894;29;20030;-78
2022/11/18 09:19:36;;;;;;;48.05;22.13;;;2.80;99.90;;;0.97;100.00;99612.22;4818818;29;20101;-78
2022/11/18 09:22:04;;;;;;;48.92;22.63;;;2.80;99.90;;;0.89;100.00;99615.00;4832313;29;20023;-78
2022/11/18 09:24:31;;;;;;;50.33;22.92;;;2.70;99.90;;;0.87;100.00;99622.38;4818318;29;20038;-78
2022/11/18 09:26:56;;;;;;;47.22;20.50;;;2.70;99.90;;;0.83;100.00;99623.75;4829370;29;20498;-78
2022/11/18 09:29:25;;;;;;;49.30;22.33;;;2.70;99.90;;;0.77;100.00;99624.47;4818146;29;20045;-78
2022/11/18 09:31:54;;;;;;;45.05;21.38;;;2.60;99.90;;;0.77;100.00;99632.50;4818374;29;20058;-79
2022/11/18 09:34:21;;;;;;;45.97;22.17;;;2.60;99.90;;;0.76;100.00;99633.53;4817968;29;20095;-80
2022/11/18 09:36:47;;;;;;;47.70;21.58;;;2.60;99.90;;;0.79;100.00;99642.06;4818050;29;20478;-78
2022/11/18 09:39:13;;;;;;;44.45;20.52;;;2.60;99.90;;;0.79;100.00;99643.91;4817793;29;20069;-78
2022/11/18 09:41:53;;;;;;;40.67;20.38;;;2.60;99.90;;;0.79;100.00;99649.28;4817816;29;20413;-81
2022/11/18 09:44:43;;;;;;;38.75;19.27;;;2.60;99.90;;;0.76;100.00;99655.84;4817721;29;20054;-78
2022/11/18 09:47:24;;;;;;;39.58;18.92;;;2.60;99.90;;;0.56;100.00;99658.16;4817837;29;20053;-78
2022/11/18 09:49:51;;;;;;;38.08;18.70;;;2.50;99.90;;;0.53;100.00;99650.44;4817916;29;20506;-81
2022/11/18 09:52:50;;;;;;;39.23;18.93;;;2.40;99.90;;;0.58;100.00;99664.19;4818214;29;20506;-79
2022/11/18 09:55:17;;;;;;;41.40;19.37;;;2.40;99.90;;;0.51;100.00;99658.66;4817742;29;20386;-78
2022/11/18 09:58:25;;;;;;;36.38;18.02;;;2.40;99.90;;;0.55;100.00;99678.78;4822763;29;20045;-81
2022/11/18 10:00:51;;;;;;;38.53;18.42;;;2.40;99.90;;;0.58;100.00;99680.28;4818335;29;20050;-81
2022/11/18 10:03:38;;;;;;;38.35;17.25;;;2.40;99.90;;;0.63;100.00;99679.75;4820910;29;20057;-81
2022/11/18 10:06:30;;;;;;;33.58;16.98;;;2.40;99.90;;;0.59;100.00;99679.28;4822776;29;20090;-78
2022/11/18 10:09:28;;;;;;;32.50;16.92;;;2.40;99.90;;;0.58;100.00;99682.97;4822082;29;20050;-79
2022/11/18 10:12:00;;;;;;;33.03;16.55;;;2.40;99.90;;;0.57;100.00;99687.50;4835936;29;20114;-79
2022/11/18 10:15:08;;;;;;;34.08;16.65;;;2.40;99.90;;;0.56;100.00;99698.41;4822341;29;20181;-78
2022/11/18 10:18:18;;;;;;;35.45;17.25;;;2.40;99.90;;;0.52;100.00;99705.13;4821740;29;20090;-78
2022/11/18 10:21:04;;;;;;;32.03;15.82;;;2.30;99.90;;;0.46;100.00;99703.16;4823226;29;20046;-77
2022/11/18 10:23:52;;;;;;;31.83;15.43;;;2.30;99.90;;;0.47;100.00;99707.50;4821842;29;20057;-77
2022/11/18 10:26:40;;;;;;;33.20;15.47;;;2.30;99.90;;;0.36;100.00;99709.56;4821154;29;20038;-78
2022/11/18 10:29:08;;;;;;;33.83;16.30;;;2.30;99.90;;;0.28;100.00;99713.09;4826623;29;20542;-77
2022/11/18 10:32:02;;;;;;;29.83;15.50;;;2.20;99.90;;;0.31;100.00;99717.28;4820928;29;20038;-78
2022/11/18 10:34:29;;;;;;;35.28;15.98;;;2.20;99.90;;;0.33;100.00;99717.97;4822537;29;20038;-77
2022/11/18 10:37:21;;;;;;;33.22;16.83;;;2.20;99.90;;;0.39;100.00;99725.31;4832146;29;20037;-78
2022/11/18 10:39:50;;;;;;;35.90;16.70;;;2.20;99.90;;;0.30;100.00;99723.69;4823688;29;20046;-78
2022/11/18 10:42:36;;;;;;;34.97;17.08;;;2.20;99.90;;;0.37;100.00;99731.84;4820574;29;20121;-78
2022/11/18 10:45:20;;;;;;;31.52;15.55;;;2.20;99.90;;;0.37;100.00;99738.06;4820524;29;20235;-78